Time;durP1;ratioP1;P1;durP2;ratioP2;P2;SDS_P1;SDS_P2;PMS_P1;PMS_P2;Temp;Humidity;BMP_temperature;BMP_pressure;BME280_temperature;BME280_humidity;BME280_pressure;Samples;Min_cycle;Max_cycle;Signal;HPM_P1;HPM_P2
2023/12/23 00:01:21;;;;;;;8.33;5.17;;;6.40;99.90;;;;;;5058985;28;20186;-64
2023/12/23 00:03:46;;;;;;;10.20;5.43;;;6.40;99.90;;;;;;5077209;28;20158;-65
2023/12/23 00:06:12;;;;;;;11.10;5.13;;;6.30;99.90;;;;;;5059003;28;20608;-64
2023/12/23 00:08:38;;;;;;;11.30;4.97;;;6.30;99.90;;;;;;5076742;28;20261;-64
2023/12/23 00:11:04;;;;;;;9.27;4.97;;;6.30;99.90;;;;;;5058920;28;20690;-64
2023/12/23 00:13:30;;;;;;;8.17;4.87;;;6.30;99.90;;;;;;5076370;28;20257;-63
2023/12/23 00:15:56;;;;;;;7.10;5.20;;;6.30;99.90;;;;;;5058670;28;20676;-64
2023/12/23 00:18:21;;;;;;;11.80;5.10;;;6.30;99.90;;;;;;5076519;28;20571;-64
2023/12/23 00:20:47;;;;;;;13.30;5.40;;;6.30;99.90;;;;;;5076554;28;20198;-64
2023/12/23 00:23:13;;;;;;;7.43;5.10;;;6.20;99.90;;;;;;5077046;28;20216;-64
2023/12/23 00:25:39;;;;;;;11.67;4.73;;;6.30;99.90;;;;;;5076445;28;20186;-65
2023/12/23 00:28:06;;;;;;;9.50;5.47;;;6.20;99.90;;;;;;5076710;28;20251;-64
2023/12/23 00:30:32;;;;;;;9.87;5.10;;;6.20;99.90;;;;;;5076074;28;20293;-65
2023/12/23 00:32:57;;;;;;;7.37;4.70;;;6.30;99.90;;;;;;5058200;28;20186;-64
2023/12/23 00:35:24;;;;;;;11.20;5.77;;;6.30;99.90;;;;;;5076185;28;20182;-64
2023/12/23 00:37:50;;;;;;;9.00;5.30;;;6.30;99.90;;;;;;5076079;28;20182;-65
2023/12/23 00:40:16;;;;;;;10.57;5.60;;;6.30;99.90;;;;;;5076328;28;20677;-65
2023/12/23 00:42:41;;;;;;;9.27;4.80;;;6.30;99.90;;;;;;5076256;28;20669;-65
2023/12/23 00:45:07;;;;;;;14.80;5.90;;;6.30;99.90;;;;;;5075862;28;20206;-65
2023/12/23 00:47:34;;;;;;;7.60;5.07;;;6.30;99.90;;;;;;5058500;28;20693;-65
2023/12/23 00:50:00;;;;;;;5.73;5.23;;;6.40;99.90;;;;;;5057956;28;20205;-64
2023/12/23 00:52:25;;;;;;;9.30;5.20;;;6.40;99.90;;;;;;5076036;28;20181;-65
2023/12/23 00:54:51;;;;;;;9.63;4.93;;;6.40;99.90;;;;;;5076216;28;20209;-65
2023/12/23 00:57:17;;;;;;;8.90;5.50;;;6.40;99.90;;;;;;5075908;28;20209;-65
2023/12/23 00:59:43;;;;;;;7.67;4.77;;;6.50;99.90;;;;;;5075426;28;20214;-65
2023/12/23 01:02:09;;;;;;;6.53;5.20;;;6.40;99.90;;;;;;5057916;28;20184;-65
2023/12/23 01:04:34;;;;;;;10.77;5.37;;;6.40;99.90;;;;;;5076648;28;20174;-64
2023/12/23 01:07:00;;;;;;;13.70;5.20;;;6.40;99.90;;;;;;5075418;28;20205;-65
2023/12/23 01:09:26;;;;;;;8.13;5.00;;;6.50;99.90;;;;;;5075611;28;20310;-66
2023/12/23 01:11:52;;;;;;;7.57;4.87;;;6.50;99.90;;;;;;5057711;28;20193;-65
2023/12/23 01:14:17;;;;;;;7.97;5.27;;;6.50;99.90;;;;;;5075299;28;20243;-65
2023/12/23 01:16:43;;;;;;;9.87;4.87;;;6.50;99.90;;;;;;5075656;28;20214;-65
2023/12/23 01:19:09;;;;;;;10.07;5.00;;;6.50;99.90;;;;;;5057436;28;20205;-65
2023/12/23 01:21:35;;;;;;;9.70;5.37;;;6.50;99.90;;;;;;5075515;28;20184;-65
2023/12/23 01:24:00;;;;;;;7.73;4.63;;;6.60;99.90;;;;;;5076005;28;20647;-64
2023/12/23 01:26:26;;;;;;;10.27;4.80;;;6.50;99.90;;;;;;5075664;28;20182;-65
2023/12/23 01:28:52;;;;;;;9.17;5.93;;;6.50;99.90;;;;;;5056956;28;20271;-64
2023/12/23 01:31:18;;;;;;;11.00;5.37;;;6.50;99.90;;;;;;5075812;28;20208;-64
2023/12/23 01:33:44;;;;;;;8.87;5.97;;;6.50;99.90;;;;;;5075319;28;20737;-65
2023/12/23 01:36:10;;;;;;;17.27;6.17;;;6.50;99.90;;;;;;5075189;28;20214;-64
2023/12/23 01:38:35;;;;;;;6.40;4.83;;;6.50;99.90;;;;;;5075150;28;20217;-64
2023/12/23 01:41:01;;;;;;;8.83;5.20;;;6.60;99.90;;;;;;5075588;28;20194;-63
2023/12/23 01:43:28;;;;;;;12.20;5.57;;;6.60;99.90;;;;;;5075008;28;20604;-63
2023/12/23 01:45:58;;;;;;;7.43;4.87;;;6.60;99.90;;;;;;5056954;28;20192;-64
2023/12/23 01:48:26;;;;;;;10.80;5.10;;;6.60;99.90;;;;;;5057105;28;20181;-64
2023/12/23 01:50:54;;;;;;;8.93;5.23;;;6.60;99.90;;;;;;5075056;28;20198;-64
2023/12/23 01:53:21;;;;;;;13.03;5.00;;;6.70;99.90;;;;;;5075082;28;20174;-64
2023/12/23 01:55:48;;;;;;;7.37;5.10;;;6.60;99.90;;;;;;5074880;28;20206;-64
2023/12/23 01:58:14;;;;;;;11.27;4.80;;;6.60;99.90;;;;;;5074984;28;20201;-64
2023/12/23 02:00:40;;;;;;;13.87;4.93;;;6.60;99.90;;;;;;5074314;28;20202;-65
2023/12/23 02:03:05;;;;;;;8.43;4.90;;;6.70;99.90;;;;;;5074954;28;20204;-64
2023/12/23 02:05:31;;;;;;;8.87;4.60;;;6.70;99.90;;;;;;5074912;28;20189;-64
2023/12/23 02:07:57;;;;;;;7.27;4.70;;;6.60;99.90;;;;;;5074994;28;20203;-64
2023/12/23 02:10:24;;;;;;;5.57;4.43;;;6.60;99.90;;;;;;5074563;28;20545;-64
2023/12/23 02:13:19;;;;;;;9.73;4.80;;;6.60;99.90;;;;;;5074414;28;20174;-64
2023/12/23 02:15:47;;;;;;;8.97;4.40;;;6.60;99.90;;;;;;5040893;28;20201;-64
2023/12/23 02:18:13;;;;;;;12.20;5.00;;;6.60;99.90;;;;;;5054161;28;20202;-64
2023/12/23 02:20:38;;;;;;;8.93;5.03;;;6.60;99.90;;;;;;5053633;28;20305;-64
2023/12/23 02:23:05;;;;;;;9.37;4.87;;;6.70;99.90;;;;;;5054558;28;20181;-64
2023/12/23 02:25:31;;;;;;;8.43;4.53;;;6.60;99.90;;;;;;5054452;28;20178;-65
2023/12/23 02:28:03;;;;;;;7.23;4.50;;;6.60;99.90;;;;;;5054771;28;20186;-64
2023/12/23 02:30:30;;;;;;;12.47;5.37;;;6.70;99.90;;;;;;5053877;28;20233;-64
2023/12/23 02:32:57;;;;;;;9.07;4.73;;;6.70;99.90;;;;;;5036245;28;20264;-64
2023/12/23 02:35:24;;;;;;;12.53;5.23;;;6.60;99.90;;;;;;5054062;28;20678;-64
2023/12/23 02:37:50;;;;;;;6.73;4.80;;;6.60;99.90;;;;;;5035986;28;20189;-63
2023/12/23 02:40:16;;;;;;;9.33;4.90;;;6.60;99.90;;;;;;5053942;28;20565;-64
2023/12/23 02:42:42;;;;;;;9.83;5.50;;;6.60;99.90;;;;;;5054197;28;20205;-64
2023/12/23 02:45:08;;;;;;;8.70;5.07;;;6.60;99.90;;;;;;5067724;28;20174;-64
2023/12/23 02:47:34;;;;;;;9.30;4.60;;;6.60;99.90;;;;;;5073856;28;20189;-64
2023/12/23 02:50:00;;;;;;;6.37;4.43;;;6.60;99.90;;;;;;5055868;28;20210;-65
2023/12/23 02:52:26;;;;;;;12.07;4.63;;;6.60;99.90;;;;;;5073988;28;20529;-64
2023/12/23 02:54:51;;;;;;;8.93;4.83;;;6.60;99.90;;;;;;5073625;28;20188;-64
2023/12/23 02:57:17;;;;;;;10.83;4.93;;;6.60;99.90;;;;;;5073617;28;20252;-64
2023/12/23 02:59:43;;;;;;;18.20;5.40;;;6.60;99.90;;;;;;5055250;28;20218;-64
2023/12/23 03:02:09;;;;;;;11.37;5.00;;;6.50;99.90;;;;;;5074212;28;20185;-64
2023/12/23 03:04:35;;;;;;;7.33;5.00;;;6.50;99.90;;;;;;5073781;28;20182;-64
2023/12/23 03:07:00;;;;;;;5.20;4.67;;;6.50;99.90;;;;;;5073758;28;20277;-64
2023/12/23 03:09:26;;;;;;;11.63;5.83;;;6.40;99.90;;;;;;5073649;28;20675;-64
2023/12/23 03:11:52;;;;;;;11.63;5.97;;;6.40;99.90;;;;;;5073543;28;20182;-64
2023/12/23 03:14:18;;;;;;;10.77;5.90;;;6.40;99.90;;;;;;5073119;28;20189;-64
2023/12/23 03:16:44;;;;;;;11.63;6.63;;;6.40;99.90;;;;;;5073560;28;20533;-64
2023/12/23 03:19:10;;;;;;;13.83;5.90;;;6.30;99.90;;;;;;5055433;28;20300;-65
2023/12/23 03:21:44;;;;;;;9.87;6.70;;;6.30;99.90;;;;;;5073659;28;20173;-64
2023/12/23 03:24:10;;;;;;;12.00;6.97;;;6.30;99.90;;;;;;5073532;28;20173;-64
2023/12/23 03:26:37;;;;;;;11.33;7.13;;;6.20;99.90;;;;;;5055476;28;20190;-64
2023/12/23 03:29:05;;;;;;;9.63;6.70;;;6.20;99.90;;;;;;5073296;28;20296;-63
2023/12/23 03:31:32;;;;;;;11.57;6.83;;;6.10;99.90;;;;;;5073619;28;20186;-64
2023/12/23 03:33:59;;;;;;;14.83;6.83;;;6.10;99.90;;;;;;5074013;28;20178;-64
2023/12/23 03:36:24;;;;;;;10.23;6.77;;;6.10;99.90;;;;;;5073435;28;20650;-64
2023/12/23 03:38:50;;;;;;;15.87;7.27;;;6.10;99.90;;;;;;5073317;28;20202;-65
2023/12/23 03:41:16;;;;;;;15.20;8.03;;;6.10;99.90;;;;;;5055191;28;20256;-65
2023/12/23 03:43:42;;;;;;;10.43;6.60;;;6.10;99.90;;;;;;5073146;28;20174;-64
2023/12/23 03:46:07;;;;;;;8.30;6.07;;;6.10;99.90;;;;;;5072892;28;20650;-64
2023/12/23 03:48:33;;;;;;;13.97;7.17;;;6.10;99.90;;;;;;5073344;28;20182;-64
2023/12/23 03:50:59;;;;;;;11.70;7.13;;;6.10;99.90;;;;;;5073210;28;20205;-64
2023/12/23 03:53:25;;;;;;;15.13;6.93;;;6.10;99.90;;;;;;5073314;28;20177;-64
2023/12/23 03:55:50;;;;;;;17.10;7.73;;;6.20;99.90;;;;;;5073216;28;20265;-64
2023/12/23 03:58:16;;;;;;;13.80;6.77;;;6.10;99.90;;;;;;5054978;28;20205;-64
2023/12/23 04:00:42;;;;;;;8.00;7.03;;;6.20;99.90;;;;;;5072888;28;20572;-65
2023/12/23 04:03:08;;;;;;;11.27;6.83;;;6.20;99.90;;;;;;5073381;28;20182;-64
2023/12/23 04:05:33;;;;;;;8.97;7.07;;;6.20;99.90;;;;;;5072906;28;20598;-64
2023/12/23 04:07:59;;;;;;;11.03;7.23;;;6.20;99.90;;;;;;5055045;28;20174;-64
2023/12/23 04:10:25;;;;;;;9.27;7.37;;;6.10;99.90;;;;;;5073002;28;20250;-64
2023/12/23 04:12:51;;;;;;;14.27;7.57;;;6.20;99.90;;;;;;5072746;28;20200;-64
2023/12/23 04:15:17;;;;;;;13.03;8.50;;;6.20;99.90;;;;;;5072457;28;20560;-63
2023/12/23 04:17:42;;;;;;;16.83;8.03;;;6.20;99.90;;;;;;5054906;28;20184;-64
2023/12/23 04:20:09;;;;;;;12.90;8.50;;;6.20;99.90;;;;;;5072559;28;20811;-64
2023/12/23 04:22:35;;;;;;;13.23;8.87;;;6.30;99.90;;;;;;5072849;28;20201;-64
2023/12/23 04:25:00;;;;;;;12.77;9.10;;;6.40;99.90;;;;;;5072655;28;20669;-64
2023/12/23 04:27:26;;;;;;;12.37;9.07;;;6.50;99.90;;;;;;5072937;28;20181;-64
2023/12/23 04:29:52;;;;;;;12.40;9.67;;;6.70;99.90;;;;;;5072323;28;20744;-65
2023/12/23 04:32:18;;;;;;;13.87;9.87;;;6.90;99.90;;;;;;5073072;28;20182;-64
2023/12/23 04:34:44;;;;;;;21.10;10.97;;;7.00;99.90;;;;;;5072594;28;20186;-63
2023/12/23 04:37:09;;;;;;;16.47;10.90;;;7.10;99.90;;;;;;5072578;28;20257;-63
2023/12/23 04:39:35;;;;;;;14.27;10.47;;;7.30;99.90;;;;;;5072436;28;20237;-66
2023/12/23 04:42:01;;;;;;;18.73;12.40;;;7.30;99.90;;;;;;5055162;28;20631;-63
2023/12/23 04:44:27;;;;;;;16.63;10.80;;;7.30;99.90;;;;;;5076094;28;20702;-63
2023/12/23 04:46:54;;;;;;;21.57;11.50;;;7.40;99.90;;;;;;5076793;28;20173;-65
2023/12/23 04:49:19;;;;;;;18.30;12.43;;;7.40;99.90;;;;;;5058265;28;20202;-63
2023/12/23 04:51:45;;;;;;;18.87;11.33;;;7.50;99.90;;;;;;5058200;28;20655;-64
2023/12/23 04:54:12;;;;;;;16.17;11.97;;;7.60;99.90;;;;;;5058094;28;20264;-63
2023/12/23 04:56:39;;;;;;;17.87;11.50;;;7.60;99.90;;;;;;5076046;28;20248;-65
2023/12/23 04:59:06;;;;;;;16.33;11.10;;;7.60;99.90;;;;;;5075796;28;20206;-63
2023/12/23 05:01:31;;;;;;;17.73;10.57;;;7.60;99.90;;;;;;5075697;28;20177;-64
2023/12/23 05:03:57;;;;;;;13.20;10.40;;;7.60;99.90;;;;;;5075890;28;20182;-64
2023/12/23 05:06:23;;;;;;;14.80;10.00;;;7.60;99.90;;;;;;5075746;28;20202;-63
2023/12/23 05:08:49;;;;;;;15.33;11.40;;;7.70;99.90;;;;;;5057760;28;20285;-64
2023/12/23 05:11:15;;;;;;;15.50;10.57;;;7.70;99.90;;;;;;5057680;28;20255;-63
2023/12/23 05:13:41;;;;;;;11.80;10.60;;;7.60;99.90;;;;;;5075658;28;20185;-64
2023/12/23 05:16:06;;;;;;;14.73;11.53;;;7.70;99.90;;;;;;5075387;28;20239;-65
2023/12/23 05:18:32;;;;;;;21.67;13.37;;;7.70;99.90;;;;;;5075844;28;20275;-64
2023/12/23 05:20:58;;;;;;;19.63;13.03;;;7.70;99.90;;;;;;5075637;28;20202;-65
2023/12/23 05:23:24;;;;;;;16.50;13.03;;;7.70;99.90;;;;;;5057542;28;20189;-63
2023/12/23 05:25:55;;;;;;;19.30;14.30;;;7.70;99.90;;;;;;5075447;28;20663;-63
2023/12/23 05:28:21;;;;;;;19.50;13.03;;;7.70;99.90;;;;;;5057522;28;20201;-64
2023/12/23 05:30:47;;;;;;;18.67;13.37;;;7.80;99.90;;;;;;5075064;28;20578;-63
2023/12/23 05:33:13;;;;;;;21.10;13.73;;;7.90;99.90;;;;;;5075319;28;20259;-63
2023/12/23 05:35:39;;;;;;;19.67;12.53;;;7.80;99.90;;;;;;5075411;28;20193;-64
2023/12/23 05:38:04;;;;;;;19.83;12.73;;;7.80;99.90;;;;;;5057230;28;20221;-65
2023/12/23 05:40:30;;;;;;;18.43;14.07;;;7.80;99.90;;;;;;5057205;28;20684;-63
2023/12/23 05:42:56;;;;;;;21.37;13.87;;;7.80;99.90;;;;;;5075502;28;20180;-64
2023/12/23 05:45:22;;;;;;;15.07;12.63;;;7.80;99.90;;;;;;5074648;28;20200;-66
2023/12/23 05:47:50;;;;;;;16.93;12.50;;;7.80;99.90;;;;;;5075044;28;20277;-65
2023/12/23 05:50:16;;;;;;;17.47;13.03;;;7.80;99.90;;;;;;5075063;28;20208;-64
2023/12/23 05:52:44;;;;;;;21.47;14.07;;;7.80;99.90;;;;;;5057107;28;20225;-64
2023/12/23 05:55:09;;;;;;;17.67;13.50;;;7.70;99.90;;;;;;5074103;28;20181;-65
2023/12/23 05:57:35;;;;;;;16.73;14.70;;;7.70;99.90;;;;;;5074858;28;20274;-64
2023/12/23 06:00:03;;;;;;;19.60;14.03;;;7.70;99.90;;;;;;5056530;28;20568;-64
2023/12/23 06:02:29;;;;;;;21.57;14.40;;;7.70;99.90;;;;;;5074799;28;20177;-65
2023/12/23 06:04:55;;;;;;;19.03;14.50;;;7.70;99.90;;;;;;5074977;28;20186;-63
2023/12/23 06:07:21;;;;;;;19.83;15.00;;;7.70;99.90;;;;;;5074917;28;20200;-64
2023/12/23 06:09:46;;;;;;;19.17;14.27;;;7.70;99.90;;;;;;5074634;28;20276;-64
2023/12/23 06:12:12;;;;;;;20.07;13.93;;;7.70;99.90;;;;;;5074832;28;20186;-63
2023/12/23 06:14:40;;;;;;;17.87;14.40;;;7.70;99.90;;;;;;5074290;28;20189;-65
2023/12/23 06:17:06;;;;;;;18.17;14.53;;;7.70;99.90;;;;;;5074797;28;20193;-64
2023/12/23 06:19:31;;;;;;;23.13;14.40;;;7.70;99.90;;;;;;5074314;28;20228;-63
2023/12/23 06:21:57;;;;;;;21.13;15.77;;;7.70;99.90;;;;;;5074793;28;20292;-64
2023/12/23 06:24:23;;;;;;;19.00;13.43;;;7.70;99.90;;;;;;5074662;28;20228;-64
2023/12/23 06:26:49;;;;;;;20.73;15.33;;;7.70;99.90;;;;;;5074770;28;20269;-63
2023/12/23 06:29:14;;;;;;;24.60;15.70;;;7.70;99.90;;;;;;5074159;28;20555;-63
2023/12/23 06:31:40;;;;;;;21.43;14.97;;;7.70;99.90;;;;;;5055890;28;20620;-64
2023/12/23 06:34:06;;;;;;;22.83;15.87;;;7.70;99.90;;;;;;5056159;28;20247;-64
2023/12/23 06:36:32;;;;;;;20.53;16.43;;;7.70;99.90;;;;;;5073926;28;20722;-65
2023/12/23 06:38:58;;;;;;;26.33;16.07;;;7.70;99.90;;;;;;5055828;28;20217;-65
2023/12/23 06:41:23;;;;;;;27.23;16.70;;;7.70;99.90;;;;;;5074589;28;20255;-64
2023/12/23 06:43:49;;;;;;;21.77;15.83;;;7.70;99.90;;;;;;5055725;28;20240;-64
2023/12/23 06:46:15;;;;;;;29.97;17.00;;;7.70;99.90;;;;;;5073601;28;20638;-64
2023/12/23 06:48:41;;;;;;;26.30;15.63;;;7.70;99.90;;;;;;5073807;28;20170;-64
2023/12/23 06:51:07;;;;;;;20.90;15.27;;;7.70;99.90;;;;;;5055701;28;20348;-64
2023/12/23 06:53:32;;;;;;;24.87;15.20;;;7.70;99.90;;;;;;5073885;28;20192;-66
2023/12/23 06:55:58;;;;;;;24.10;15.77;;;7.70;99.90;;;;;;5055875;28;20687;-64
2023/12/23 06:58:28;;;;;;;24.27;15.97;;;7.70;99.90;;;;;;5073704;28;20213;-64
2023/12/23 07:00:54;;;;;;;24.77;16.27;;;7.70;99.90;;;;;;5055363;28;20206;-65
2023/12/23 07:03:21;;;;;;;21.87;16.77;;;7.80;99.90;;;;;;5073545;28;20662;-65
2023/12/23 07:05:46;;;;;;;21.23;17.03;;;7.70;99.90;;;;;;5073134;28;20657;-64
2023/12/23 07:08:12;;;;;;;26.07;17.07;;;7.70;99.90;;;;;;5055711;28;20210;-64
2023/12/23 07:10:38;;;;;;;26.70;17.43;;;7.70;99.90;;;;;;5073427;28;20740;-64
2023/12/23 07:13:04;;;;;;;26.77;17.33;;;7.70;99.90;;;;;;5073733;28;20180;-64
2023/12/23 07:15:29;;;;;;;24.23;16.87;;;7.70;99.90;;;;;;5073148;28;20185;-65
2023/12/23 07:17:55;;;;;;;24.33;16.83;;;7.70;99.90;;;;;;5073866;28;20177;-64
2023/12/23 07:20:21;;;;;;;22.00;15.67;;;7.80;99.90;;;;;;5055097;28;20220;-64
2023/12/23 07:22:48;;;;;;;28.87;17.30;;;7.80;99.90;;;;;;5073504;28;20186;-65
2023/12/23 07:25:14;;;;;;;22.47;15.87;;;7.80;99.90;;;;;;5073136;28;20279;-64
2023/12/23 07:27:39;;;;;;;20.33;16.93;;;7.70;99.90;;;;;;5055465;28;20639;-64
2023/12/23 07:30:06;;;;;;;19.80;15.93;;;7.70;99.90;;;;;;5073130;28;20259;-66
2023/12/23 07:32:31;;;;;;;24.73;15.33;;;7.80;99.90;;;;;;5073117;28;20320;-65
2023/12/23 07:34:57;;;;;;;22.97;16.30;;;7.80;99.90;;;;;;5055032;28;20665;-64
2023/12/23 07:37:23;;;;;;;26.43;16.03;;;7.80;99.90;;;;;;5073186;28;20186;-64
2023/12/23 07:39:49;;;;;;;21.83;14.70;;;7.80;99.90;;;;;;5072907;28;20228;-65
2023/12/23 07:42:15;;;;;;;21.93;15.57;;;7.80;99.90;;;;;;5073320;28;20174;-64
2023/12/23 07:44:41;;;;;;;23.87;15.63;;;7.80;99.90;;;;;;5072964;28;20606;-65
2023/12/23 07:47:09;;;;;;;18.67;14.17;;;7.80;99.90;;;;;;5072858;28;20247;-66
2023/12/23 07:49:35;;;;;;;19.03;14.27;;;7.80;99.90;;;;;;5072951;28;20209;-64
2023/12/23 07:52:00;;;;;;;17.97;14.37;;;7.80;99.90;;;;;;5073496;28;20186;-65
2023/12/23 07:54:26;;;;;;;18.77;14.07;;;7.80;99.90;;;;;;5054977;28;20615;-65
2023/12/23 07:56:52;;;;;;;21.60;12.80;;;7.80;99.90;;;;;;5073033;28;20265;-65
2023/12/23 07:59:18;;;;;;;17.67;13.47;;;7.80;99.90;;;;;;5073122;28;20213;-65
2023/12/23 08:01:45;;;;;;;16.70;12.93;;;7.80;99.90;;;;;;5072710;28;20182;-65
2023/12/23 08:04:12;;;;;;;17.97;13.20;;;7.90;99.90;;;;;;5073517;28;20627;-65
2023/12/23 08:06:38;;;;;;;16.83;13.27;;;7.80;99.90;;;;;;5054795;28;20202;-65
2023/12/23 08:09:04;;;;;;;18.07;12.90;;;7.80;99.90;;;;;;5072999;28;20281;-65
2023/12/23 08:11:30;;;;;;;15.97;13.17;;;7.90;99.90;;;;;;5072773;28;20190;-65
2023/12/23 08:13:56;;;;;;;21.07;11.63;;;7.90;99.90;;;;;;5073208;28;20197;-65
2023/12/23 08:16:21;;;;;;;20.37;12.90;;;7.90;99.90;;;;;;5072522;28;20186;-66
2023/12/23 08:18:47;;;;;;;20.60;13.03;;;7.90;99.90;;;;;;5076568;28;20215;-65
2023/12/23 08:21:14;;;;;;;20.57;12.67;;;7.90;99.90;;;;;;5058715;28;20214;-64
2023/12/23 08:23:39;;;;;;;22.23;12.70;;;7.90;99.90;;;;;;5058761;28;20644;-65
2023/12/23 08:26:05;;;;;;;16.00;11.87;;;7.90;99.90;;;;;;5076650;28;20178;-63
2023/12/23 08:28:31;;;;;;;18.07;11.63;;;7.90;99.90;;;;;;5076863;28;20516;-65
2023/12/23 08:30:57;;;;;;;16.47;11.20;;;7.90;99.90;;;;;;5076337;28;20205;-65
2023/12/23 08:33:28;;;;;;;12.63;10.43;;;7.90;99.90;;;;;;5076434;28;20654;-65
2023/12/23 08:35:56;;;;;;;14.17;11.13;;;8.00;99.90;;;;;;5076747;28;20174;-65
2023/12/23 08:38:22;;;;;;;19.00;11.40;;;7.90;99.90;;;;;;5058372;28;20185;-64
2023/12/23 08:40:48;;;;;;;15.37;10.80;;;8.00;99.90;;;;;;5076315;28;20219;-64
2023/12/23 08:43:15;;;;;;;14.03;10.80;;;8.00;99.90;;;;;;5058678;28;20638;-63
2023/12/23 08:45:41;;;;;;;13.20;10.10;;;8.00;99.90;;;;;;5076011;28;20665;-64
2023/12/23 08:48:07;;;;;;;15.50;10.20;;;8.00;99.90;;;;;;5076783;28;20177;-65
2023/12/23 08:50:33;;;;;;;13.07;10.63;;;8.00;99.90;;;;;;5076191;28;20662;-65
2023/12/23 08:52:58;;;;;;;14.20;10.43;;;7.90;99.90;;;;;;5058135;28;20186;-65
2023/12/23 08:55:24;;;;;;;17.77;10.02;;;7.90;99.90;;;;;;5076544;28;20538;-65
2023/12/23 08:57:50;;;;;;;16.05;9.45;;;7.90;99.90;;;;;;5076186;28;20169;-66
2023/12/23 09:00:16;;;;;;;15.30;9.13;;;8.00;99.90;;;;;;5075725;28;20720;-65
2023/12/23 09:02:42;;;;;;;15.88;9.85;;;8.00;99.90;;;;;;5076393;28;20170;-64
2023/12/23 09:05:08;;;;;;;18.87;10.67;;;8.00;99.90;;;;;;5075827;28;20543;-64
2023/12/23 09:07:34;;;;;;;19.10;11.60;;;8.00;99.90;;;;;;5057627;28;20216;-65
2023/12/23 09:10:00;;;;;;;23.20;10.70;;;8.00;99.90;;;;;;5075704;28;20213;-64
2023/12/23 09:12:25;;;;;;;15.80;11.07;;;8.10;99.90;;;;;;5075710;28;20292;-65
2023/12/23 09:14:51;;;;;;;15.67;11.23;;;8.00;99.90;;;;;;5075866;28;20224;-64
2023/12/23 09:17:17;;;;;;;19.00;12.97;;;8.00;99.90;;;;;;5057575;28;20286;-65
2023/12/23 09:19:43;;;;;;;16.57;12.10;;;8.00;99.90;;;;;;5057481;28;20690;-65
2023/12/23 09:22:09;;;;;;;21.17;11.57;;;8.00;99.90;;;;;;5076056;28;20247;-64
2023/12/23 09:24:36;;;;;;;21.40;12.23;;;8.00;99.90;;;;;;5076010;28;20201;-64
2023/12/23 09:27:02;;;;;;;21.95;12.27;;;8.00;99.90;;;;;;5075554;28;20178;-66
2023/12/23 09:29:27;;;;;;;16.80;12.03;;;8.10;99.90;;;;;;5075125;28;20251;-65
2023/12/23 09:31:53;;;;;;;24.00;12.43;;;8.10;99.90;;;;;;5075137;28;20700;-64
2023/12/23 09:34:20;;;;;;;20.13;12.70;;;8.10;99.90;;;;;;5075336;28;20643;-63
2023/12/23 09:36:48;;;;;;;24.50;12.17;;;8.00;99.90;;;;;;5057452;28;20194;-65
2023/12/23 09:39:16;;;;;;;20.57;12.27;;;8.10;99.90;;;;;;5075942;28;20206;-63
2023/12/23 09:41:44;;;;;;;17.53;12.10;;;8.10;99.90;;;;;;5075594;28;20181;-65
2023/12/23 09:44:15;;;;;;;17.63;11.87;;;8.00;99.90;;;;;;5075159;28;20665;-64
2023/12/23 09:46:42;;;;;;;23.13;12.73;;;8.10;99.90;;;;;;5075042;28;20174;-64
2023/12/23 09:49:12;;;;;;;28.93;12.07;;;8.10;99.90;;;;;;5074950;28;20177;-64
2023/12/23 09:51:38;;;;;;;22.57;11.97;;;8.10;99.90;;;;;;5056990;28;20185;-64
2023/12/23 09:54:05;;;;;;;18.37;11.70;;;8.10;99.90;;;;;;5075057;28;20542;-63
2023/12/23 09:56:34;;;;;;;18.63;12.07;;;8.10;99.90;;;;;;5075185;28;20166;-64
2023/12/23 09:59:03;;;;;;;28.02;11.45;;;8.10;99.90;;;;;;5056690;28;20214;-65
2023/12/23 10:01:29;;;;;;;28.90;11.48;;;8.10;99.90;;;;;;5056443;28;20193;-65
2023/12/23 10:03:55;;;;;;;28.75;9.73;;;8.10;99.90;;;;;;5056864;28;20193;-64
2023/12/23 10:06:23;;;;;;;21.05;9.95;;;8.10;99.90;;;;;;5073234;28;20297;-65
2023/12/23 10:08:49;;;;;;;21.53;9.67;;;8.10;99.90;;;;;;5075249;28;20190;-64
2023/12/23 10:11:15;;;;;;;22.70;9.67;;;8.10;99.90;;;;;;5074610;28;20244;-65
2023/12/23 10:13:41;;;;;;;19.20;10.13;;;8.10;99.90;;;;;;5056654;28;20193;-64
2023/12/23 10:16:08;;;;;;;17.63;9.50;;;8.10;99.90;;;;;;5074243;28;20193;-65
2023/12/23 10:18:34;;;;;;;17.97;10.23;;;8.20;99.90;;;;;;5074379;28;20297;-65
2023/12/23 10:21:00;;;;;;;19.88;9.50;;;8.10;99.90;;;;;;5074564;28;20272;-64
2023/12/23 10:23:28;;;;;;;15.90;8.67;;;8.20;99.90;;;;;;5074717;28;20635;-63
2023/12/23 10:25:54;;;;;;;16.13;9.20;;;8.20;99.90;;;;;;5074776;28;20181;-64
2023/12/23 10:28:22;;;;;;;23.73;9.00;;;8.10;99.90;;;;;;5074409;28;20182;-64
2023/12/23 10:30:49;;;;;;;19.13;9.00;;;8.20;99.90;;;;;;5074203;28;20202;-64
2023/12/23 10:33:17;;;;;;;17.98;8.95;;;8.10;99.90;;;;;;5075565;28;20185;-64
2023/12/23 10:35:47;;;;;;;21.17;9.02;;;8.10;99.90;;;;;;5078786;28;20166;-64
2023/12/23 10:38:22;;;;;;;16.37;8.13;;;8.10;99.90;;;;;;5079488;28;20180;-63
2023/12/23 10:40:55;;;;;;;15.43;8.03;;;8.20;99.90;;;;;;5057567;28;20209;-64
2023/12/23 10:43:23;;;;;;;21.63;8.90;;;8.20;99.90;;;;;;5074324;28;20509;-64
2023/12/23 10:45:51;;;;;;;16.77;8.77;;;8.20;99.90;;;;;;5073684;28;20201;-64
2023/12/23 10:48:20;;;;;;;13.93;7.10;;;8.20;99.90;;;;;;5074388;28;20162;-64
2023/12/23 10:50:47;;;;;;;19.10;7.73;;;8.20;99.90;;;;;;5073826;28;20209;-65
2023/12/23 10:53:17;;;;;;;16.03;9.13;;;8.20;99.90;;;;;;5074029;28;20700;-63
2023/12/23 10:55:45;;;;;;;16.17;8.27;;;8.20;99.90;;;;;;5055708;28;20238;-64
2023/12/23 10:58:14;;;;;;;17.47;8.67;;;8.10;99.90;;;;;;5073703;28;20173;-64
2023/12/23 11:00:41;;;;;;;18.52;8.98;;;8.10;99.90;;;;;;5073360;28;20208;-63
2023/12/23 11:03:08;;;;;;;13.60;8.67;;;8.10;99.90;;;;;;5073573;28;20178;-63
2023/12/23 11:05:37;;;;;;;13.80;8.10;;;8.10;99.90;;;;;;5055932;28;20186;-64
2023/12/23 11:08:06;;;;;;;17.03;8.80;;;8.10;99.90;;;;;;5074039;28;20158;-64
2023/12/23 11:10:34;;;;;;;14.47;8.60;;;8.20;99.90;;;;;;5073603;28;20681;-64
2023/12/23 11:13:00;;;;;;;14.33;8.87;;;8.20;99.90;;;;;;5055541;28;20200;-63
2023/12/23 11:15:26;;;;;;;15.37;9.33;;;8.20;99.90;;;;;;5073504;28;20194;-64
2023/12/23 11:17:54;;;;;;;17.47;9.60;;;8.20;99.90;;;;;;5073161;28;20166;-64
2023/12/23 11:20:33;;;;;;;16.40;9.43;;;8.20;99.90;;;;;;5073278;28;20245;-65
2023/12/23 11:23:27;;;;;;;15.35;9.50;;;8.10;99.90;;;;;;5073681;28;20182;-64
2023/12/23 11:25:54;;;;;;;13.67;9.37;;;8.10;99.90;;;;;;5073271;28;20182;-65
2023/12/23 11:28:21;;;;;;;11.37;8.07;;;8.20;99.90;;;;;;5055235;28;20185;-64
2023/12/23 11:30:50;;;;;;;12.47;8.93;;;8.20;99.90;;;;;;5073128;28;20663;-65
2023/12/23 11:33:20;;;;;;;15.43;8.83;;;8.20;99.90;;;;;;5073091;28;20186;-64
2023/12/23 11:35:53;;;;;;;17.17;9.63;;;8.20;99.90;;;;;;5073093;28;20257;-64
2023/12/23 11:38:25;;;;;;;19.93;9.77;;;8.20;99.90;;;;;;5073084;28;20231;-64
2023/12/23 11:40:52;;;;;;;14.97;8.33;;;8.20;99.90;;;;;;5055159;28;20287;-64
2023/12/23 11:43:18;;;;;;;10.47;8.30;;;8.20;99.90;;;;;;5055069;28;20193;-64
2023/12/23 11:45:48;;;;;;;12.90;8.90;;;8.20;99.90;;;;;;5072751;28;20197;-64
2023/12/23 11:48:14;;;;;;;17.60;8.67;;;8.20;99.90;;;;;;5072942;28;20167;-64
2023/12/23 11:50:41;;;;;;;12.57;8.17;;;8.20;99.90;;;;;;5072915;28;20204;-64
2023/12/23 11:53:07;;;;;;;14.43;8.67;;;8.20;99.90;;;;;;5059068;28;20292;-64
2023/12/23 11:55:34;;;;;;;13.83;8.23;;;8.20;99.90;;;;;;5077090;28;20177;-63
2023/12/23 11:58:00;;;;;;;16.07;8.33;;;8.20;99.90;;;;;;5077134;28;20184;-63
2023/12/23 12:00:28;;;;;;;17.47;8.67;;;8.20;99.90;;;;;;5058927;28;20274;-63
2023/12/23 12:02:54;;;;;;;13.33;8.13;;;8.20;99.90;;;;;;5076730;28;20552;-64
2023/12/23 12:05:20;;;;;;;14.37;8.30;;;8.20;99.90;;;;;;5076710;28;20269;-64
2023/12/23 12:07:46;;;;;;;11.50;8.20;;;8.20;99.90;;;;;;5075469;28;20196;-63
2023/12/23 12:10:14;;;;;;;11.87;8.17;;;8.10;99.90;;;;;;5075417;28;20201;-63
2023/12/23 12:12:40;;;;;;;13.03;7.93;;;8.20;99.90;;;;;;5057388;28;20643;-64
2023/12/23 12:15:06;;;;;;;9.53;7.90;;;8.20;99.90;;;;;;5075230;28;20190;-64
2023/12/23 12:17:32;;;;;;;14.77;8.70;;;8.20;99.90;;;;;;5075072;28;20190;-64
2023/12/23 12:19:59;;;;;;;14.50;8.87;;;8.20;99.90;;;;;;5057177;28;20601;-63
2023/12/23 12:22:25;;;;;;;11.97;8.70;;;8.20;99.90;;;;;;5075231;28;20182;-65
2023/12/23 12:24:51;;;;;;;14.77;9.13;;;8.20;99.90;;;;;;5075181;28;20178;-65
2023/12/23 12:27:17;;;;;;;15.47;11.03;;;8.10;99.90;;;;;;5075409;28;20178;-64
2023/12/23 12:29:43;;;;;;;16.03;11.53;;;8.10;99.90;;;;;;5057024;28;20205;-64
2023/12/23 12:32:13;;;;;;;17.00;12.37;;;8.10;99.90;;;;;;5074877;28;20255;-64
2023/12/23 12:34:39;;;;;;;16.87;13.87;;;8.10;99.90;;;;;;5075218;28;20181;-64
2023/12/23 12:37:04;;;;;;;16.07;12.53;;;8.10;99.90;;;;;;5075103;28;20240;-64
2023/12/23 12:39:30;;;;;;;19.40;13.70;;;8.10;99.90;;;;;;5056909;28;20228;-63